Station Historical Data
Daily Summary for April 11, 2017 Units:  English    Metric   Both
« Previous Day
Next Day »
Daily Weekly Monthly Yearly Custom
  High: Low: Average:
Temperature: 80.0 °F 49.1 °F 66.2 °F
Dew Point: 57.8 °F 20.5 °F 45.7 °F
Humidity: 81% 32% 50%
Wind Speed: 1.0mph 0.0mph 0.1mph
Wind Gust: 5.0mph - -
Wind- - SW
Pressure: 30.32 in 30.16 in -
Precipitation: 0.00 in    
Historical Graphs
 
 
Tabular Data for April 11, 2017
Time Temperature Dew Point Pressure Wind Wind Speed Wind Gust Humidity Rainfall Rate (Hourly) Conditions
00:00 60.3 °F 31.8 °F 30.26 in Calm     34% 0.00 in RA
00:15 60.5 °F 49.9 °F 30.26 in Calm     68% 0.00 in SCT
00:30 60.5 °F 49.5 °F 30.26 in Calm     67% 0.00 in SCT
00:45 60.6 °F 48.4 °F 30.25 in Calm     64% 0.00 in SCT
01:00 60.5 °F 49.4 °F 30.25 in Calm     67% 0.00 in SCT
01:15 59.7 °F 49.6 °F 30.25 in Calm     69% 0.00 in SCT
01:30 59.1 °F 49.4 °F 30.25 in Calm     70% 0.00 in SCT
01:45 59.0 °F 50.0 °F 30.25 in Calm     72% 0.00 in SCT
02:00 58.5 °F 50.2 °F 30.25 in Calm     74% 0.00 in SCT
02:15 58.0 °F 50.1 °F 30.25 in Calm     75% 0.00 in SCT
02:30 57.4 °F 49.9 °F 30.25 in Calm     76% 0.00 in SCT
02:45 56.7 °F 49.6 °F 30.24 in Calm     77% 0.00 in SCT
03:00 56.3 °F 49.5 °F 30.24 in Calm     78% 0.00 in SCT
03:15 56.0 °F 49.6 °F 30.24 in Calm     79% 0.00 in SCT
03:30 54.6 °F 48.2 °F 30.24 in Calm     79% 0.00 in SCT
03:45 54.3 °F 25.0 °F 30.24 in Calm     32% 0.00 in SCT
04:00 52.6 °F 23.6 °F 30.23 in Calm     32% 0.00 in SCT
04:15 52.0 °F 23.0 °F 30.16 in Calm     32% 0.00 in SCT
04:30 50.9 °F 22.0 °F 30.23 in Calm     32% 0.00 in SCT
04:45 50.7 °F 21.9 °F 30.23 in Calm     32% 0.00 in SCT
05:00 50.1 °F 21.4 °F 30.23 in Calm     32% 0.00 in SCT
05:15 49.9 °F 21.2 °F 30.23 in Calm     32% 0.00 in SCT
05:30 49.7 °F 21.0 °F 30.23 in Calm     32% 0.00 in SCT
05:45 49.5 °F 20.8 °F 30.23 in Calm     32% 0.00 in SCT
06:00 49.4 °F 20.7 °F 30.23 in Calm     32% 0.00 in SCT
06:15 49.2 °F 20.6 °F 30.24 in Calm     32% 0.00 in SCT
06:30 49.2 °F 20.5 °F 30.24 in Calm     32% 0.00 in SCT
06:45 49.1 °F 20.5 °F 30.24 in Calm     32% 0.00 in SCT
07:00 49.1 °F 20.5 °F 30.24 in Calm     32% 0.00 in SCT
07:15 49.1 °F 20.5 °F 30.24 in Calm     32% 0.00 in SCT
07:30 49.1 °F 20.5 °F 30.25 in Calm     32% 0.00 in SCT
07:45 49.1 °F 20.5 °F 30.26 in Calm     32% 0.00 in SCT
08:00 49.1 °F 20.5 °F 30.27 in Calm     32% 0.00 in SCT
08:15 57.2 °F 51.5 °F 30.28 in Calm   1.0 mph 81% 0.00 in SCT
08:30 58.5 °F 52.0 °F 30.28 in Calm   1.0 mph 79% 0.00 in SCT
08:45 60.2 °F 52.3 °F 30.29 in Calm   1.0 mph 75% 0.00 in SCT
09:00 60.8 °F 52.5 °F 30.29 in Calm   1.0 mph 74% 0.00 in SCT
09:15 62.6 °F 53.5 °F 30.29 in Calm   2.0 mph 72% 0.00 in SCT
09:30 63.7 °F 54.1 °F 30.30 in Calm   1.0 mph 71% 0.00 in SCT
09:45 66.3 °F 54.6 °F 30.30 in Calm   2.0 mph 66% 0.00 in SCT
10:00 68.1 °F 54.6 °F 30.31 in NNW 1.0 mph 2.0 mph 62% 0.00 in SCT
10:15 70.3 °F 56.6 °F 30.31 in Calm   2.0 mph 62% 0.00 in SCT
10:30 70.5 °F 56.4 °F 30.31 in Calm   2.0 mph 61% 0.00 in SCT
10:45 71.6 °F 55.1 °F 30.32 in South 1.0 mph 5.0 mph 56% 0.00 in SCT
11:00 73.3 °F 56.6 °F 30.31 in Calm   3.0 mph 56% 0.00 in SCT
11:15 74.6 °F 57.3 °F 30.31 in Calm   2.0 mph 55% 0.00 in SCT
11:30 75.7 °F 57.8 °F 30.31 in Calm   3.0 mph 54% 0.00 in SCT
11:45 76.5 °F 57.0 °F 30.31 in Calm   2.0 mph 51% 0.00 in SCT
12:00 77.0 °F 56.4 °F 30.30 in SSE 1.0 mph 5.0 mph 49% 0.00 in SCT
12:15 77.4 °F 56.2 °F 30.30 in SW 1.0 mph 5.0 mph 48% 0.00 in SCT
12:30 78.2 °F 56.3 °F 30.29 in Calm   3.0 mph 47% 0.00 in SCT
12:45 78.0 °F 54.3 °F 30.29 in SW 1.0 mph 3.0 mph 44% 0.00 in SCT
13:00 77.1 °F 54.1 °F 30.28 in Calm   3.0 mph 45% 0.00 in SCT
13:15 77.1 °F 52.9 °F 30.28 in SE 1.0 mph 3.0 mph 43% 0.00 in SCT
13:30 76.3 °F 52.8 °F 30.27 in Calm   3.0 mph 44% 0.00 in SCT
13:45 77.9 °F 54.2 °F 30.26 in Calm   5.0 mph 44% 0.00 in SCT
14:15 77.8 °F 52.2 °F 30.25 in South 1.0 mph 3.0 mph 41% 0.00 in SCT
14:30 77.7 °F 51.5 °F 30.25 in Calm   3.0 mph 40% 0.00 in SCT
14:45 77.7 °F 50.8 °F 30.24 in Calm   2.0 mph 39% 0.00 in SCT
15:00 78.5 °F 50.8 °F 30.23 in Calm   2.0 mph 38% 0.00 in SCT
15:15 78.8 °F 50.4 °F 30.22 in Calm   2.0 mph 37% 0.00 in SCT
15:30 79.3 °F 51.5 °F 30.22 in Calm   3.0 mph 38% 0.00 in SCT
15:45 80.0 °F 51.4 °F 30.20 in Calm   2.0 mph 37% 0.00 in SCT
16:00 78.8 °F 49.6 °F 30.20 in Calm   2.0 mph 36% 0.00 in SCT
16:15 78.8 °F 51.0 °F 30.19 in Calm   1.0 mph 38% 0.00 in SCT
16:30 79.4 °F 49.4 °F 30.19 in Calm   3.0 mph 35% 0.00 in SCT
16:45 79.5 °F 49.4 °F 30.18 in Calm   3.0 mph 35% 0.00 in SCT
17:00 79.4 °F 50.1 °F 30.18 in Calm   1.0 mph 36% 0.00 in SCT
17:15 79.5 °F 49.4 °F 30.17 in WNW 1.0 mph 2.0 mph 35% 0.00 in SCT
17:30 79.6 °F 48.7 °F 30.17 in Calm   1.0 mph 34% 0.00 in SCT
17:45 79.8 °F 48.1 °F 30.17 in NW 1.0 mph 2.0 mph 33% 0.00 in CLR
18:00 79.2 °F 49.1 °F 30.17 in Calm   1.0 mph 35% 0.00 in CLR
18:15 77.9 °F 50.2 °F 30.17 in Calm   1.0 mph 38% 0.00 in CLR
18:30 77.6 °F 48.5 °F 30.17 in Calm     36% 0.00 in CLR
18:45 77.1 °F 48.8 °F 30.17 in Calm     37% 0.00 in CLR
19:00 76.5 °F 49.0 °F 30.17 in Calm   1.0 mph 38% 0.00 in CLR
19:15 75.8 °F 49.7 °F 30.17 in Calm     40% 0.00 in CLR
19:30 74.8 °F 50.8 °F 30.17 in Calm     43% 0.00 in CLR
19:45 73.7 °F 49.8 °F 30.17 in Calm     43% 0.00 in CLR
20:00 72.8 °F 49.6 °F 30.18 in Calm     44% 0.00 in CLR
20:15 72.0 °F 50.6 °F 30.18 in Calm     47% 0.00 in CLR
20:30 71.1 °F 50.4 °F 30.19 in Calm     48% 0.00 in CLR
20:45 70.4 °F 50.8 °F 30.19 in Calm     50% 0.00 in CLR
21:00 69.5 °F 51.1 °F 30.19 in Calm     52% 0.00 in CLR
21:15 68.4 °F 51.1 °F 30.20 in Calm     54% 0.00 in CLR
21:30 67.9 °F 51.1 °F 30.20 in Calm     55% 0.00 in CLR
21:45 66.9 °F 52.1 °F 30.21 in Calm     59% 0.00 in CLR
22:00 65.9 °F 52.0 °F 30.22 in Calm     61% 0.00 in CLR
22:15 65.1 °F 52.2 °F 30.22 in Calm     63% 0.00 in CLR
22:30 64.8 °F 53.2 °F 30.22 in Calm     66% 0.00 in CLR
22:45 65.0 °F 52.1 °F 30.22 in Calm     63% 0.00 in CLR
23:00 65.0 °F 51.7 °F 30.22 in Calm     62% 0.00 in CLR
23:15 65.1 °F 52.1 °F 30.22 in Calm     63% 0.00 in CLR
23:30 65.0 °F 51.7 °F 30.23 in Calm     62% 0.00 in CLR
23:45 64.9 °F 51.6 °F 30.22 in Calm     62% 0.00 in CLR
Piedmont Bend
Compliments of Weather Underground - 4 mb